Terminal Aerodrome Forecast
Issued by NWS

Home | Current Version | Previous Version | Text Only | Print | Product List | Glossary On
Versions: 1 2 3 4 5 6 7 8 9 10 11 12 13 14 15
000
FTUS46 KHNX 171122
TAFFAT
TAF
KFAT 171122Z 1712/1812 VRB03KT 4SM BR FEW200
      TEMPO 1714/1717 2SM BR
     FM180800 11004KT 2SM BR BKN200=

USA.gov is the U.S. government's official web portal to all federal, state and local government web resources and services.